Terminal Aerodrome Forecast
Issued by NWS Houston/Galveston, TX

Current Version | Previous Version | Text Only | Print | Product List | Glossary On
Versions: 1 2 3 4 5 6 7 8 9 10 11 12 13 14 15 16 17 18 19 20 21 22 23 24 25 26 27 28 29 30 31 32
000
FTUS44 KHGX 271501 AAA
TAFGLS
TAF AMD
KGLS 271501Z 2715/2812 14011KT 6SM BR VCSH BKN060
     FM272000 32012G20KT 4SM -TSRA BR BKN012CB
     FM280000 34010KT P6SM VCTS BKN015CB
     FM280400 34014KT 5SM -SHRA BR BKN010
     FM281000 35014KT P6SM VCSH OVC015=

USA.gov is the U.S. government's official web portal to all federal, state and local government web resources and services.